sensor_id;sensor_type;location;lat;lon;timestamp;pressure;altitude;pressure_sealevel;temperature;humidity
71239;BME280;61342;51.442;7.370;2022-11-20T00:00:21;99723.31;;;0.39;75.16
71239;BME280;61342;51.442;7.370;2022-11-20T00:01:23;99726.00;;;0.43;75.06
71239;BME280;61342;51.442;7.370;2022-11-20T00:02:25;99724.75;;;0.44;75.52
71239;BME280;61342;51.442;7.370;2022-11-20T00:03:25;99728.34;;;0.44;75.60
71239;BME280;61342;51.442;7.370;2022-11-20T00:04:26;99725.22;;;0.42;75.45
71239;BME280;61342;51.442;7.370;2022-11-20T00:05:26;99724.75;;;0.44;75.41
71239;BME280;61342;51.442;7.370;2022-11-20T00:06:27;99714.56;;;0.37;75.37
71239;BME280;61342;51.442;7.370;2022-11-20T00:07:28;99719.09;;;0.44;75.66
71239;BME280;61342;51.442;7.370;2022-11-20T00:08:28;99712.63;;;0.43;75.64
71239;BME280;61342;51.442;7.370;2022-11-20T00:09:29;99705.59;;;0.39;75.44
71239;BME280;61342;51.442;7.370;2022-11-20T00:10:30;99711.72;;;0.46;75.51
71239;BME280;61342;51.442;7.370;2022-11-20T00:11:31;99709.38;;;0.45;75.76
71239;BME280;61342;51.442;7.370;2022-11-20T00:12:34;99705.88;;;0.41;75.80
71239;BME280;61342;51.442;7.370;2022-11-20T00:13:35;99697.28;;;0.35;75.66
71239;BME280;61342;51.442;7.370;2022-11-20T00:14:36;99720.47;;;0.48;75.62
71239;BME280;61342;51.442;7.370;2022-11-20T00:15:36;99717.19;;;0.50;75.72
71239;BME280;61342;51.442;7.370;2022-11-20T00:16:37;99710.13;;;0.45;75.79
71239;BME280;61342;51.442;7.370;2022-11-20T00:17:37;99706.06;;;0.46;75.75
71239;BME280;61342;51.442;7.370;2022-11-20T00:18:38;99710.91;;;0.46;75.87
71239;BME280;61342;51.442;7.370;2022-11-20T00:19:43;99725.78;;;0.55;75.72
71239;BME280;61342;51.442;7.370;2022-11-20T00:21:00;99706.06;;;0.46;75.84
71239;BME280;61342;51.442;7.370;2022-11-20T00:22:01;99711.97;;;0.57;76.09
71239;BME280;61342;51.442;7.370;2022-11-20T00:23:01;99714.81;;;0.57;76.06
71239;BME280;61342;51.442;7.370;2022-11-20T00:24:02;99708.84;;;0.55;75.92
71239;BME280;61342;51.442;7.370;2022-11-20T00:25:03;99703.19;;;0.55;75.92
71239;BME280;61342;51.442;7.370;2022-11-20T00:26:04;99680.44;;;0.41;76.00
71239;BME280;61342;51.442;7.370;2022-11-20T00:27:05;99693.63;;;0.53;76.00
71239;BME280;61342;51.442;7.370;2022-11-20T00:28:06;99689.38;;;0.48;76.33
71239;BME280;61342;51.442;7.370;2022-11-20T00:29:09;99711.03;;;0.60;75.98
71239;BME280;61342;51.442;7.370;2022-11-20T00:30:10;99700.06;;;0.53;76.17
71239;BME280;61342;51.442;7.370;2022-11-20T00:31:15;99708.69;;;0.58;76.26
71239;BME280;61342;51.442;7.370;2022-11-20T00:32:15;99705.06;;;0.58;76.12
71239;BME280;61342;51.442;7.370;2022-11-20T00:33:16;99710.88;;;0.63;76.06
71239;BME280;61342;51.442;7.370;2022-11-20T00:34:18;99711.47;;;0.67;76.20
71239;BME280;61342;51.442;7.370;2022-11-20T00:35:19;99715.09;;;0.68;76.45
71239;BME280;61342;51.442;7.370;2022-11-20T00:36:23;99719.47;;;0.69;76.10
71239;BME280;61342;51.442;7.370;2022-11-20T00:37:24;99718.53;;;0.72;76.18
71239;BME280;61342;51.442;7.370;2022-11-20T00:38:24;99708.66;;;0.67;76.42
71239;BME280;61342;51.442;7.370;2022-11-20T00:39:25;99722.91;;;0.73;76.21
71239;BME280;61342;51.442;7.370;2022-11-20T00:40:25;99713.66;;;0.72;76.45
71239;BME280;61342;51.442;7.370;2022-11-20T00:41:27;99717.88;;;0.77;76.21
71239;BME280;61342;51.442;7.370;2022-11-20T00:42:28;99710.97;;;0.78;76.42
71239;BME280;61342;51.442;7.370;2022-11-20T00:43:29;99709.28;;;0.71;76.66
71239;BME280;61342;51.442;7.370;2022-11-20T00:44:31;99702.69;;;0.65;76.39
71239;BME280;61342;51.442;7.370;2022-11-20T00:45:34;99702.16;;;0.76;76.41
71239;BME280;61342;51.442;7.370;2022-11-20T00:46:35;99708.44;;;0.80;76.58
71239;BME280;61342;51.442;7.370;2022-11-20T00:47:35;99716.28;;;0.85;76.41
71239;BME280;61342;51.442;7.370;2022-11-20T00:48:36;99723.50;;;0.86;76.71
71239;BME280;61342;51.442;7.370;2022-11-20T00:49:39;99708.13;;;0.87;76.65
71239;BME280;61342;51.442;7.370;2022-11-20T00:50:41;99704.47;;;0.86;76.77
71239;BME280;61342;51.442;7.370;2022-11-20T00:51:45;99719.25;;;0.90;76.73
71239;BME280;61342;51.442;7.370;2022-11-20T00:52:47;99707.16;;;0.90;76.76
71239;BME280;61342;51.442;7.370;2022-11-20T00:53:48;99718.31;;;0.93;76.75
71239;BME280;61342;51.442;7.370;2022-11-20T00:54:49;99702.94;;;0.85;76.49
71239;BME280;61342;51.442;7.370;2022-11-20T00:56:07;99711.56;;;0.91;76.50
71239;BME280;61342;51.442;7.370;2022-11-20T00:57:09;99703.22;;;0.87;76.56
71239;BME280;61342;51.442;7.370;2022-11-20T00:58:14;99710.59;;;0.94;76.72
71239;BME280;61342;51.442;7.370;2022-11-20T00:59:15;99705.22;;;0.96;76.87
71239;BME280;61342;51.442;7.370;2022-11-20T01:00:15;99703.06;;;0.91;76.92
71239;BME280;61342;51.442;7.370;2022-11-20T01:01:18;99706.50;;;0.95;76.64
71239;BME280;61342;51.442;7.370;2022-11-20T01:02:19;99719.34;;;1.05;76.71
71239;BME280;61342;51.442;7.370;2022-11-20T01:03:20;99697.41;;;0.91;76.98
71239;BME280;61342;51.442;7.370;2022-11-20T01:04:23;99714.47;;;1.05;76.95
71239;BME280;61342;51.442;7.370;2022-11-20T01:05:23;99703.31;;;1.02;77.08
71239;BME280;61342;51.442;7.370;2022-11-20T01:06:33;99712.72;;;1.08;76.87
71239;BME280;61342;51.442;7.370;2022-11-20T01:07:33;99720.53;;;1.13;76.87
71239;BME280;61342;51.442;7.370;2022-11-20T01:08:35;99713.34;;;1.12;76.85
71239;BME280;61342;51.442;7.370;2022-11-20T01:09:36;99709.53;;;1.14;77.02
71239;BME280;61342;51.442;7.370;2022-11-20T01:10:36;99713.16;;;1.15;77.13
71239;BME280;61342;51.442;7.370;2022-11-20T01:11:39;99711.41;;;1.17;76.86
71239;BME280;61342;51.442;7.370;2022-11-20T01:12:42;99707.00;;;1.16;77.05
71239;BME280;61342;51.442;7.370;2022-11-20T01:13:44;99701.81;;;1.15;77.00
71239;BME280;61342;51.442;7.370;2022-11-20T01:14:46;99706.53;;;1.18;77.01
71239;BME280;61342;51.442;7.370;2022-11-20T01:15:47;99705.59;;;1.21;77.63
71239;BME280;61342;51.442;7.370;2022-11-20T01:16:50;99702.28;;;1.22;77.02
71239;BME280;61342;51.442;7.370;2022-11-20T01:17:51;99697.38;;;1.23;77.20
71239;BME280;61342;51.442;7.370;2022-11-20T01:18:53;99705.69;;;1.26;77.34
71239;BME280;61342;51.442;7.370;2022-11-20T01:19:54;99691.72;;;1.23;77.34
71239;BME280;61342;51.442;7.370;2022-11-20T01:20:54;99681.25;;;1.14;77.31
71239;BME280;61342;51.442;7.370;2022-11-20T01:21:55;99697.81;;;1.30;77.37
71239;BME280;61342;51.442;7.370;2022-11-20T01:22:55;99707.88;;;1.31;77.19
71239;BME280;61342;51.442;7.370;2022-11-20T01:23:56;99700.94;;;1.32;77.46
71239;BME280;61342;51.442;7.370;2022-11-20T01:24:56;99676.81;;;1.22;77.53
71239;BME280;61342;51.442;7.370;2022-11-20T01:25:59;99699.69;;;1.33;77.55
71239;BME280;61342;51.442;7.370;2022-11-20T01:27:02;99705.16;;;1.37;77.50
71239;BME280;61342;51.442;7.370;2022-11-20T01:28:05;99681.00;;;1.27;77.66
71239;BME280;61342;51.442;7.370;2022-11-20T01:29:10;99692.75;;;1.34;77.65
71239;BME280;61342;51.442;7.370;2022-11-20T01:30:15;99694.81;;;1.34;77.27
71239;BME280;61342;51.442;7.370;2022-11-20T01:31:29;99704.81;;;1.44;77.61
71239;BME280;61342;51.442;7.370;2022-11-20T01:32:31;99687.38;;;1.36;77.39
71239;BME280;61342;51.442;7.370;2022-11-20T01:33:35;99689.28;;;1.39;77.52
71239;BME280;61342;51.442;7.370;2022-11-20T01:34:35;99707.47;;;1.47;77.61
71239;BME280;61342;51.442;7.370;2022-11-20T01:35:35;99693.00;;;1.45;77.71
71239;BME280;61342;51.442;7.370;2022-11-20T01:36:37;99698.97;;;1.47;77.62
71239;BME280;61342;51.442;7.370;2022-11-20T01:37:40;99691.13;;;1.42;77.38
71239;BME280;61342;51.442;7.370;2022-11-20T01:38:41;99694.09;;;1.48;77.34
71239;BME280;61342;51.442;7.370;2022-11-20T01:39:42;99689.22;;;1.48;77.74
71239;BME280;61342;51.442;7.370;2022-11-20T01:40:43;99694.50;;;1.55;77.71
71239;BME280;61342;51.442;7.370;2022-11-20T01:41:44;99685.22;;;1.55;77.77
71239;BME280;61342;51.442;7.370;2022-11-20T01:43:30;99682.59;;;1.51;77.53
71239;BME280;61342;51.442;7.370;2022-11-20T01:46:06;99686.31;;;1.57;77.52
71239;BME280;61342;51.442;7.370;2022-11-20T01:47:16;99678.28;;;1.56;77.68
71239;BME280;61342;51.442;7.370;2022-11-20T01:48:18;99682.53;;;1.60;77.75
71239;BME280;61342;51.442;7.370;2022-11-20T01:49:25;99674.03;;;1.60;77.65
71239;BME280;61342;51.442;7.370;2022-11-20T01:50:28;99677.16;;;1.62;77.76
71239;BME280;61342;51.442;7.370;2022-11-20T01:52:39;99679.81;;;1.66;77.59
71239;BME280;61342;51.442;7.370;2022-11-20T01:53:43;99664.06;;;1.65;77.71
71239;BME280;61342;51.442;7.370;2022-11-20T01:54:48;99672.09;;;1.66;77.87
71239;BME280;61342;51.442;7.370;2022-11-20T01:55:53;99668.75;;;1.68;77.76
71239;BME280;61342;51.442;7.370;2022-11-20T01:56:57;99667.81;;;1.71;77.92
71239;BME280;61342;51.442;7.370;2022-11-20T01:57:59;99660.09;;;1.71;77.60
71239;BME280;61342;51.442;7.370;2022-11-20T01:59:04;99655.69;;;1.70;77.67
71239;BME280;61342;51.442;7.370;2022-11-20T02:00:10;99657.53;;;1.73;77.68
71239;BME280;61342;51.442;7.370;2022-11-20T02:01:11;99657.84;;;1.75;77.93
71239;BME280;61342;51.442;7.370;2022-11-20T02:02:12;99650.94;;;1.76;78.00
71239;BME280;61342;51.442;7.370;2022-11-20T02:03:16;99655.03;;;1.75;77.95
71239;BME280;61342;51.442;7.370;2022-11-20T02:04:16;99666.44;;;1.80;77.91
71239;BME280;61342;51.442;7.370;2022-11-20T02:06:51;99655.63;;;1.79;77.97
71239;BME280;61342;51.442;7.370;2022-11-20T02:07:56;99648.69;;;1.80;77.97
71239;BME280;61342;51.442;7.370;2022-11-20T02:08:57;99642.53;;;1.81;77.88
71239;BME280;61342;51.442;7.370;2022-11-20T02:09:58;99647.59;;;1.77;77.89
71239;BME280;61342;51.442;7.370;2022-11-20T02:10:58;99654.47;;;1.85;78.12
71239;BME280;61342;51.442;7.370;2022-11-20T02:11:59;99657.56;;;1.87;77.67
71239;BME280;61342;51.442;7.370;2022-11-20T02:12:59;99658.66;;;1.90;77.94
71239;BME280;61342;51.442;7.370;2022-11-20T02:14:19;99659.16;;;1.88;77.95
71239;BME280;61342;51.442;7.370;2022-11-20T02:15:19;99663.81;;;1.91;78.11
71239;BME280;61342;51.442;7.370;2022-11-20T02:17:20;99669.81;;;1.93;77.98
71239;BME280;61342;51.442;7.370;2022-11-20T02:18:21;99666.19;;;1.93;77.96
71239;BME280;61342;51.442;7.370;2022-11-20T02:19:24;99672.47;;;1.97;77.96
71239;BME280;61342;51.442;7.370;2022-11-20T02:20:26;99671.97;;;1.98;78.00
71239;BME280;61342;51.442;7.370;2022-11-20T02:23:11;99671.97;;;1.98;78.05
71239;BME280;61342;51.442;7.370;2022-11-20T02:24:14;99663.47;;;1.98;78.20
71239;BME280;61342;51.442;7.370;2022-11-20T02:25:15;99668.94;;;2.02;77.95
71239;BME280;61342;51.442;7.370;2022-11-20T02:26:17;99655.25;;;2.00;77.98
71239;BME280;61342;51.442;7.370;2022-11-20T02:27:20;99658.69;;;2.04;77.91
71239;BME280;61342;51.442;7.370;2022-11-20T02:28:21;99653.81;;;2.05;78.01
71239;BME280;61342;51.442;7.370;2022-11-20T02:29:44;99647.84;;;2.03;78.22
71239;BME280;61342;51.442;7.370;2022-11-20T02:30:46;99652.50;;;2.06;77.98
71239;BME280;61342;51.442;7.370;2022-11-20T02:31:46;99649.19;;;2.07;77.94
71239;BME280;61342;51.442;7.370;2022-11-20T02:32:47;99643.34;;;2.11;78.23
71239;BME280;61342;51.442;7.370;2022-11-20T02:33:47;99644.41;;;2.13;78.20
71239;BME280;61342;51.442;7.370;2022-11-20T02:34:48;99635.91;;;2.13;78.39
71239;BME280;61342;51.442;7.370;2022-11-20T02:35:48;99639.53;;;2.14;78.16
71239;BME280;61342;51.442;7.370;2022-11-20T02:36:49;99635.44;;;2.15;78.31
71239;BME280;61342;51.442;7.370;2022-11-20T02:37:54;99640.91;;;2.18;78.39
71239;BME280;61342;51.442;7.370;2022-11-20T02:38:55;99643.75;;;2.18;78.14
71239;BME280;61342;51.442;7.370;2022-11-20T02:39:55;99642.47;;;2.19;78.34
71239;BME280;61342;51.442;7.370;2022-11-20T02:40:56;99645.41;;;2.25;78.46
71239;BME280;61342;51.442;7.370;2022-11-20T02:41:56;99630.66;;;2.21;78.46
71239;BME280;61342;51.442;7.370;2022-11-20T02:42:58;99642.56;;;2.25;78.23
71239;BME280;61342;51.442;7.370;2022-11-20T02:43:58;99631.59;;;2.18;78.42
71239;BME280;61342;51.442;7.370;2022-11-20T02:44:58;99644.72;;;2.29;78.51
71239;BME280;61342;51.442;7.370;2022-11-20T02:45:59;99640.34;;;2.28;78.57
71239;BME280;61342;51.442;7.370;2022-11-20T02:46:59;99656.03;;;2.29;78.72
71239;BME280;61342;51.442;7.370;2022-11-20T02:47:59;99649.91;;;2.31;78.53
71239;BME280;61342;51.442;7.370;2022-11-20T02:49:02;99643.16;;;2.28;78.18
71239;BME280;61342;51.442;7.370;2022-11-20T02:50:05;99645.31;;;2.33;78.53
71239;BME280;61342;51.442;7.370;2022-11-20T02:51:06;99640.59;;;2.30;78.66
71239;BME280;61342;51.442;7.370;2022-11-20T02:52:06;99642.47;;;2.33;78.34
71239;BME280;61342;51.442;7.370;2022-11-20T02:53:07;99630.06;;;2.31;78.61
71239;BME280;61342;51.442;7.370;2022-11-20T02:54:07;99628.31;;;2.33;78.24
71239;BME280;61342;51.442;7.370;2022-11-20T02:55:08;99624.88;;;2.29;78.30
71239;BME280;61342;51.442;7.370;2022-11-20T02:56:08;99624.50;;;2.36;78.54
71239;BME280;61342;51.442;7.370;2022-11-20T02:57:08;99628.31;;;2.33;78.26
71239;BME280;61342;51.442;7.370;2022-11-20T02:58:09;99628.09;;;2.37;78.39
71239;BME280;61342;51.442;7.370;2022-11-20T02:59:09;99633.56;;;2.40;78.33
71239;BME280;61342;51.442;7.370;2022-11-20T03:00:10;99622.81;;;2.30;78.34
71239;BME280;61342;51.442;7.370;2022-11-20T03:01:11;99628.41;;;2.39;78.53
71239;BME280;61342;51.442;7.370;2022-11-20T03:02:11;99633.09;;;2.42;78.34
71239;BME280;61342;51.442;7.370;2022-11-20T03:03:12;99625.06;;;2.40;78.30
71239;BME280;61342;51.442;7.370;2022-11-20T03:04:12;99624.09;;;2.43;78.53
71239;BME280;61342;51.442;7.370;2022-11-20T03:05:13;99622.00;;;2.44;78.45
71239;BME280;61342;51.442;7.370;2022-11-20T03:06:16;99619.69;;;2.42;78.36
71239;BME280;61342;51.442;7.370;2022-11-20T03:07:16;99624.38;;;2.45;78.27
71239;BME280;61342;51.442;7.370;2022-11-20T03:08:17;99628.75;;;2.46;78.31
71239;BME280;61342;51.442;7.370;2022-11-20T03:09:17;99628.28;;;2.48;78.27
71239;BME280;61342;51.442;7.370;2022-11-20T03:10:17;99629.84;;;2.49;78.33
71239;BME280;61342;51.442;7.370;2022-11-20T03:11:18;99631.41;;;2.50;78.28
71239;BME280;61342;51.442;7.370;2022-11-20T03:12:18;99631.41;;;2.50;78.46
71239;BME280;61342;51.442;7.370;2022-11-20T03:13:18;99621.84;;;2.47;78.46
71239;BME280;61342;51.442;7.370;2022-11-20T03:14:19;99624.97;;;2.49;78.33
71239;BME280;61342;51.442;7.370;2022-11-20T03:15:19;99619.00;;;2.47;78.54
71239;BME280;61342;51.442;7.370;2022-11-20T03:16:21;99628.38;;;2.53;78.54
71239;BME280;61342;51.442;7.370;2022-11-20T03:17:22;99616.94;;;2.48;78.48
71239;BME280;61342;51.442;7.370;2022-11-20T03:18:22;99610.28;;;2.51;78.54
71239;BME280;61342;51.442;7.370;2022-11-20T03:19:23;99624.75;;;2.53;78.41
71239;BME280;61342;51.442;7.370;2022-11-20T03:20:23;99620.34;;;2.52;78.62
71239;BME280;61342;51.442;7.370;2022-11-20T03:21:26;99621.72;;;2.56;78.53
71239;BME280;61342;51.442;7.370;2022-11-20T03:22:29;99626.41;;;2.59;78.43
71239;BME280;61342;51.442;7.370;2022-11-20T03:23:31;99618.69;;;2.60;78.43
71239;BME280;61342;51.442;7.370;2022-11-20T03:24:32;99615.88;;;2.60;78.40
71239;BME280;61342;51.442;7.370;2022-11-20T03:25:32;99605.41;;;2.51;78.48
71239;BME280;61342;51.442;7.370;2022-11-20T03:26:32;99601.47;;;2.49;78.50
71239;BME280;61342;51.442;7.370;2022-11-20T03:27:34;99607.81;;;2.58;78.20
71239;BME280;61342;51.442;7.370;2022-11-20T03:28:35;99616.91;;;2.62;78.65
71239;BME280;61342;51.442;7.370;2022-11-20T03:29:35;99620.06;;;2.64;78.35
71239;BME280;61342;51.442;7.370;2022-11-20T03:30:35;99612.81;;;2.63;78.35
71239;BME280;61342;51.442;7.370;2022-11-20T03:31:38;99618.78;;;2.65;78.62
71239;BME280;61342;51.442;7.370;2022-11-20T03:32:40;99611.53;;;2.64;78.52
71239;BME280;61342;51.442;7.370;2022-11-20T03:33:41;99618.28;;;2.67;78.38
71239;BME280;61342;51.442;7.370;2022-11-20T03:34:42;99604.59;;;2.65;78.40
71239;BME280;61342;51.442;7.370;2022-11-20T03:35:42;99615.44;;;2.67;78.37
71239;BME280;61342;51.442;7.370;2022-11-20T03:36:43;99610.84;;;2.69;78.45
71239;BME280;61342;51.442;7.370;2022-11-20T03:37:43;99607.22;;;2.69;78.71
71239;BME280;61342;51.442;7.370;2022-11-20T03:38:46;99609.84;;;2.72;78.54
71239;BME280;61342;51.442;7.370;2022-11-20T03:39:46;99604.19;;;2.72;78.40
71239;BME280;61342;51.442;7.370;2022-11-20T03:40:47;99585.44;;;2.60;78.57
71239;BME280;61342;51.442;7.370;2022-11-20T03:41:55;99597.34;;;2.64;78.32
71239;BME280;61342;51.442;7.370;2022-11-20T03:42:57;99597.63;;;2.66;78.64
71239;BME280;61342;51.442;7.370;2022-11-20T03:44:02;99597.94;;;2.68;78.71
71239;BME280;61342;51.442;7.370;2022-11-20T03:45:06;99598.78;;;2.74;78.86
71239;BME280;61342;51.442;7.370;2022-11-20T03:46:08;99600.78;;;2.68;78.56
71239;BME280;61342;51.442;7.370;2022-11-20T03:47:19;99588.94;;;2.70;78.97
71239;BME280;61342;51.442;7.370;2022-11-20T03:48:30;99599.38;;;2.78;78.65
71239;BME280;61342;51.442;7.370;2022-11-20T03:49:32;99596.16;;;2.71;78.84
71239;BME280;61342;51.442;7.370;2022-11-20T03:50:33;99585.41;;;2.75;78.94
71239;BME280;61342;51.442;7.370;2022-11-20T03:51:36;99608.75;;;2.84;78.65
71239;BME280;61342;51.442;7.370;2022-11-20T03:52:37;99596.56;;;2.78;78.82
71239;BME280;61342;51.442;7.370;2022-11-20T03:53:38;99604.34;;;2.83;78.79
71239;BME280;61342;51.442;7.370;2022-11-20T03:54:38;99597.69;;;2.86;78.74
71239;BME280;61342;51.442;7.370;2022-11-20T03:55:39;99591.53;;;2.87;78.95
71239;BME280;61342;51.442;7.370;2022-11-20T03:56:39;99595.91;;;2.88;78.99
71239;BME280;61342;51.442;7.370;2022-11-20T03:57:40;99600.81;;;2.88;78.80
71239;BME280;61342;51.442;7.370;2022-11-20T03:58:40;99594.13;;;2.91;78.79
71239;BME280;61342;51.442;7.370;2022-11-20T03:59:41;99594.13;;;2.91;79.05
71239;BME280;61342;51.442;7.370;2022-11-20T04:00:41;99595.44;;;2.90;78.64
71239;BME280;61342;51.442;7.370;2022-11-20T04:01:41;99579.09;;;2.85;78.94
71239;BME280;61342;51.442;7.370;2022-11-20T04:02:42;99590.81;;;2.92;78.73
71239;BME280;61342;51.442;7.370;2022-11-20T04:03:43;99590.81;;;2.92;79.18
71239;BME280;61342;51.442;7.370;2022-11-20T04:04:43;99600.69;;;2.97;78.90
71239;BME280;61342;51.442;7.370;2022-11-20T04:05:44;99593.94;;;2.94;78.87
71239;BME280;61342;51.442;7.370;2022-11-20T04:06:44;99597.09;;;2.96;79.05
71239;BME280;61342;51.442;7.370;2022-11-20T04:07:44;99582.78;;;2.91;79.16
71239;BME280;61342;51.442;7.370;2022-11-20T04:08:45;99596.84;;;3.00;79.14
71239;BME280;61342;51.442;7.370;2022-11-20T04:09:46;99598.44;;;3.01;79.26
71239;BME280;61342;51.442;7.370;2022-11-20T04:10:46;99597.66;;;3.00;78.85
71239;BME280;61342;51.442;7.370;2022-11-20T04:11:47;99584.75;;;2.99;79.08
71239;BME280;61342;51.442;7.370;2022-11-20T04:12:47;99589.03;;;2.95;79.03
71239;BME280;61342;51.442;7.370;2022-11-20T04:13:56;99583.38;;;2.95;78.98
71239;BME280;61342;51.442;7.370;2022-11-20T04:14:56;99604.69;;;3.05;79.09
71239;BME280;61342;51.442;7.370;2022-11-20T04:15:57;99589.72;;;3.04;79.23
71239;BME280;61342;51.442;7.370;2022-11-20T04:16:58;99597.72;;;3.06;78.92
71239;BME280;61342;51.442;7.370;2022-11-20T04:17:58;99593.31;;;3.05;79.29
71239;BME280;61342;51.442;7.370;2022-11-20T04:19:00;99594.38;;;3.07;78.98
71239;BME280;61342;51.442;7.370;2022-11-20T04:20:01;99588.41;;;3.05;79.07
71239;BME280;61342;51.442;7.370;2022-11-20T04:21:03;99579.81;;;3.00;79.16
71239;BME280;61342;51.442;7.370;2022-11-20T04:22:06;99575.41;;;2.99;79.56
71239;BME280;61342;51.442;7.370;2022-11-20T04:23:16;99570.75;;;2.96;79.08
71239;BME280;61342;51.442;7.370;2022-11-20T04:24:17;99581.09;;;2.99;79.14
71239;BME280;61342;51.442;7.370;2022-11-20T04:25:24;99575.41;;;2.99;79.05
71239;BME280;61342;51.442;7.370;2022-11-20T04:26:34;99573.88;;;2.98;79.27
71239;BME280;61342;51.442;7.370;2022-11-20T04:27:51;99582.66;;;3.00;79.06
71239;BME280;61342;51.442;7.370;2022-11-20T04:29:03;99577.28;;;3.02;79.32
71239;BME280;61342;51.442;7.370;2022-11-20T04:30:04;99581.97;;;3.05;79.38
71239;BME280;61342;51.442;7.370;2022-11-20T04:31:07;99577.88;;;3.06;79.18
71239;BME280;61342;51.442;7.370;2022-11-20T04:32:12;99578.13;;;3.08;79.16
71239;BME280;61342;51.442;7.370;2022-11-20T04:33:13;99587.78;;;3.16;79.34
71239;BME280;61342;51.442;7.370;2022-11-20T04:34:13;99588.59;;;3.16;79.29
71239;BME280;61342;51.442;7.370;2022-11-20T04:35:14;99590.13;;;3.17;79.23
71239;BME280;61342;51.442;7.370;2022-11-20T04:36:24;99591.19;;;3.20;79.09
71239;BME280;61342;51.442;7.370;2022-11-20T04:37:25;99596.31;;;3.16;79.18
71239;BME280;61342;51.442;7.370;2022-11-20T04:38:25;99594.03;;;3.20;79.37
71239;BME280;61342;51.442;7.370;2022-11-20T04:39:26;99572.75;;;3.10;79.23
71239;BME280;61342;51.442;7.370;2022-11-20T04:40:27;99594.84;;;3.20;79.36
71239;BME280;61342;51.442;7.370;2022-11-20T04:41:30;99587.59;;;3.19;79.26
71239;BME280;61342;51.442;7.370;2022-11-20T04:42:30;99580.53;;;3.15;79.19
71239;BME280;61342;51.442;7.370;2022-11-20T04:43:31;99601.59;;;3.23;79.39
71239;BME280;61342;51.442;7.370;2022-11-20T04:44:32;99598.38;;;3.15;79.42
71239;BME280;61342;51.442;7.370;2022-11-20T04:45:32;99596.38;;;3.21;79.34
71239;BME280;61342;51.442;7.370;2022-11-20T04:46:39;99597.94;;;3.22;79.04
71239;BME280;61342;51.442;7.370;2022-11-20T04:47:40;99595.41;;;3.24;79.13
71239;BME280;61342;51.442;7.370;2022-11-20T04:48:40;99590.22;;;3.23;79.27
71239;BME280;61342;51.442;7.370;2022-11-20T04:49:43;99597.75;;;3.26;79.19
71239;BME280;61342;51.442;7.370;2022-11-20T04:50:43;99590.50;;;3.25;79.31
71239;BME280;61342;51.442;7.370;2022-11-20T04:51:44;99592.06;;;3.26;79.16
71239;BME280;61342;51.442;7.370;2022-11-20T04:52:44;99596.16;;;3.25;79.08
71239;BME280;61342;51.442;7.370;2022-11-20T04:53:45;99602.16;;;3.27;79.02
71239;BME280;61342;51.442;7.370;2022-11-20T04:54:45;99594.59;;;3.24;79.33
71239;BME280;61342;51.442;7.370;2022-11-20T04:55:45;99594.09;;;3.25;79.20
71239;BME280;61342;51.442;7.370;2022-11-20T04:56:50;99586.88;;;3.24;79.02
71239;BME280;61342;51.442;7.370;2022-11-20T04:57:50;99592.84;;;3.26;79.09
71239;BME280;61342;51.442;7.370;2022-11-20T04:58:51;99588.91;;;3.24;79.23
71239;BME280;61342;51.442;7.370;2022-11-20T04:59:52;99584.31;;;3.26;79.03
71239;BME280;61342;51.442;7.370;2022-11-20T05:00:52;99592.06;;;3.26;79.14
71239;BME280;61342;51.442;7.370;2022-11-20T05:01:53;99584.81;;;3.25;79.40
71239;BME280;61342;51.442;7.370;2022-11-20T05:02:56;99586.38;;;3.26;79.39
71239;BME280;61342;51.442;7.370;2022-11-20T05:03:56;99597.25;;;3.27;78.96
71239;BME280;61342;51.442;7.370;2022-11-20T05:04:56;99589.50;;;3.28;79.40
71239;BME280;61342;51.442;7.370;2022-11-20T05:06:01;99588.72;;;3.27;79.12
71239;BME280;61342;51.442;7.370;2022-11-20T05:07:05;99584.81;;;3.25;79.23
71239;BME280;61342;51.442;7.370;2022-11-20T05:08:07;99578.00;;;3.17;79.05
71239;BME280;61342;51.442;7.370;2022-11-20T05:09:08;99593.34;;;3.25;79.26
71239;BME280;61342;51.442;7.370;2022-11-20T05:10:18;99578.00;;;3.17;79.37
71239;BME280;61342;51.442;7.370;2022-11-20T05:11:34;99578.50;;;3.15;79.05
71239;BME280;61342;51.442;7.370;2022-11-20T05:13:58;99583.38;;;3.15;79.33
71239;BME280;61342;51.442;7.370;2022-11-20T05:15:02;99590.78;;;3.27;79.24
71239;BME280;61342;51.442;7.370;2022-11-20T05:16:07;99596.16;;;3.25;79.05
71239;BME280;61342;51.442;7.370;2022-11-20T05:17:10;99603.41;;;3.26;79.26
71239;BME280;61342;51.442;7.370;2022-11-20T05:18:11;99596.38;;;3.21;79.27
71239;BME280;61342;51.442;7.370;2022-11-20T05:19:11;99606.53;;;3.28;79.35
71239;BME280;61342;51.442;7.370;2022-11-20T05:20:11;99605.25;;;3.29;79.12
71239;BME280;61342;51.442;7.370;2022-11-20T05:21:15;99597.16;;;3.22;79.44
71239;BME280;61342;51.442;7.370;2022-11-20T05:22:15;99581.84;;;3.14;79.30
71239;BME280;61342;51.442;7.370;2022-11-20T05:23:15;99606.53;;;3.28;79.20
71239;BME280;61342;51.442;7.370;2022-11-20T05:24:18;99603.69;;;3.28;79.28
71239;BME280;61342;51.442;7.370;2022-11-20T05:25:19;99574.59;;;3.13;79.20
71239;BME280;61342;51.442;7.370;2022-11-20T05:26:23;99594.84;;;3.20;79.37
71239;BME280;61342;51.442;7.370;2022-11-20T05:27:26;99591.50;;;3.22;79.39
71239;BME280;61342;51.442;7.370;2022-11-20T05:28:29;99593.25;;;3.19;79.38
71239;BME280;61342;51.442;7.370;2022-11-20T05:29:32;99610.16;;;3.28;79.11
71239;BME280;61342;51.442;7.370;2022-11-20T05:30:35;99587.84;;;3.21;79.37
71239;BME280;61342;51.442;7.370;2022-11-20T05:31:35;99599.56;;;3.29;79.42
71239;BME280;61342;51.442;7.370;2022-11-20T05:32:39;99596.16;;;3.25;79.16
71239;BME280;61342;51.442;7.370;2022-11-20T05:33:41;99600.84;;;3.28;79.14
71239;BME280;61342;51.442;7.370;2022-11-20T05:34:47;99585.50;;;3.20;79.25
71239;BME280;61342;51.442;7.370;2022-11-20T05:35:49;99576.44;;;3.16;79.36
71239;BME280;61342;51.442;7.370;2022-11-20T05:37:02;99605.25;;;3.29;79.37
71239;BME280;61342;51.442;7.370;2022-11-20T05:38:05;99575.66;;;3.15;79.35
71239;BME280;61342;51.442;7.370;2022-11-20T05:39:08;99596.09;;;3.19;79.50
71239;BME280;61342;51.442;7.370;2022-11-20T05:40:26;99571.75;;;3.13;79.21
71239;BME280;61342;51.442;7.370;2022-11-20T05:41:41;99596.94;;;3.25;79.34
71239;BME280;61342;51.442;7.370;2022-11-20T05:42:44;99586.00;;;3.18;79.44